sensor_id;sensor_type;location;lat;lon;timestamp;pressure;altitude;pressure_sealevel;temperature
15360;BMP280;7779;49.596;11.070;2023-12-22T00:02:08;96599.00;;;8.02
15360;BMP280;7779;49.596;11.070;2023-12-22T00:04:34;96614.03;;;8.04
15360;BMP280;7779;49.596;11.070;2023-12-22T00:06:59;96604.84;;;8.03
15360;BMP280;7779;49.596;11.070;2023-12-22T00:09:25;96604.84;;;8.03
15360;BMP280;7779;49.596;11.070;2023-12-22T00:11:51;96617.31;;;8.03
15360;BMP280;7779;49.596;11.070;2023-12-22T00:14:16;96624.81;;;8.03
15360;BMP280;7779;49.596;11.070;2023-12-22T00:16:42;96623.16;;;8.03
15360;BMP280;7779;49.596;11.070;2023-12-22T00:19:08;96613.25;;;8.05
15360;BMP280;7779;49.596;11.070;2023-12-22T00:21:34;96624.00;;;8.04
15360;BMP280;7779;49.596;11.070;2023-12-22T00:24:00;96631.53;;;8.05
15360;BMP280;7779;49.596;11.070;2023-12-22T00:26:25;96609.09;;;8.05
15360;BMP280;7779;49.596;11.070;2023-12-22T00:28:51;96618.31;;;8.08
15360;BMP280;7779;49.596;11.070;2023-12-22T00:31:17;96618.31;;;8.08
15360;BMP280;7779;49.596;11.070;2023-12-22T00:33:43;96634.25;;;8.10
15360;BMP280;7779;49.596;11.070;2023-12-22T00:36:09;96629.13;;;8.07
15360;BMP280;7779;49.596;11.070;2023-12-22T00:38:35;96629.88;;;8.06
15360;BMP280;7779;49.596;11.070;2023-12-22T00:41:01;96634.78;;;8.03
15360;BMP280;7779;49.596;11.070;2023-12-22T00:43:26;96631.38;;;8.01
15360;BMP280;7779;49.596;11.070;2023-12-22T00:45:52;96645.44;;;7.99
15360;BMP280;7779;49.596;11.070;2023-12-22T00:48:18;96646.97;;;7.97
15360;BMP280;7779;49.596;11.070;2023-12-22T00:50:43;96642.81;;;7.96
15360;BMP280;7779;49.596;11.070;2023-12-22T00:53:09;96632.78;;;7.94
15360;BMP280;7779;49.596;11.070;2023-12-22T00:55:35;96648.50;;;7.93
15360;BMP280;7779;49.596;11.070;2023-12-22T00:58:01;96648.47;;;7.92
15360;BMP280;7779;49.596;11.070;2023-12-22T01:00:26;96648.34;;;7.89
15360;BMP280;7779;49.596;11.070;2023-12-22T01:02:52;96644.25;;;7.91
15360;BMP280;7779;49.596;11.070;2023-12-22T01:05:18;96650.16;;;7.93
15360;BMP280;7779;49.596;11.070;2023-12-22T01:07:44;96647.66;;;7.93
15360;BMP280;7779;49.596;11.070;2023-12-22T01:10:09;96646.00;;;7.93
15360;BMP280;7779;49.596;11.070;2023-12-22T01:12:35;96648.56;;;7.95
15360;BMP280;7779;49.596;11.070;2023-12-22T01:15:01;96646.94;;;7.95
15360;BMP280;7779;49.596;11.070;2023-12-22T01:17:26;96651.97;;;7.97
15360;BMP280;7779;49.596;11.070;2023-12-22T01:19:52;96641.34;;;8.01
15360;BMP280;7779;49.596;11.070;2023-12-22T01:22:18;96653.00;;;8.02
15360;BMP280;7779;49.596;11.070;2023-12-22T01:24:44;96641.50;;;8.05
15360;BMP280;7779;49.596;11.070;2023-12-22T01:27:11;96653.25;;;8.08
15360;BMP280;7779;49.596;11.070;2023-12-22T01:29:37;96661.72;;;8.11
15360;BMP280;7779;49.596;11.070;2023-12-22T01:32:03;96661.06;;;8.15
15360;BMP280;7779;49.596;11.070;2023-12-22T01:34:29;96668.72;;;8.19
15360;BMP280;7779;49.596;11.070;2023-12-22T01:36:55;96672.06;;;8.20
15360;BMP280;7779;49.596;11.070;2023-12-22T01:39:21;96666.34;;;8.22
15360;BMP280;7779;49.596;11.070;2023-12-22T01:41:46;96672.19;;;8.23
15360;BMP280;7779;49.596;11.070;2023-12-22T01:44:12;96675.59;;;8.25
15360;BMP280;7779;49.596;11.070;2023-12-22T01:46:39;96667.25;;;8.24
15360;BMP280;7779;49.596;11.070;2023-12-22T01:49:07;96677.22;;;8.24
15360;BMP280;7779;49.596;11.070;2023-12-22T01:51:37;96684.88;;;8.29
15360;BMP280;7779;49.596;11.070;2023-12-22T01:54:05;96679.81;;;8.27
15360;BMP280;7779;49.596;11.070;2023-12-22T01:56:32;96685.75;;;8.29
15360;BMP280;7779;49.596;11.070;2023-12-22T01:59:00;96673.28;;;8.29
15360;BMP280;7779;49.596;11.070;2023-12-22T02:01:28;96638.38;;;8.29
15360;BMP280;7779;49.596;11.070;2023-12-22T02:03:55;96637.47;;;8.29
15360;BMP280;7779;49.596;11.070;2023-12-22T02:06:22;96645.84;;;8.29
15360;BMP280;7779;49.596;11.070;2023-12-22T02:08:48;96654.22;;;8.31
15360;BMP280;7779;49.596;11.070;2023-12-22T02:11:14;96660.97;;;8.34
15360;BMP280;7779;49.596;11.070;2023-12-22T02:13:44;96675.19;;;8.36
15360;BMP280;7779;49.596;11.070;2023-12-22T02:16:28;96682.03;;;8.40
15360;BMP280;7779;49.596;11.070;2023-12-22T02:22:04;96658.75;;;8.41
15360;BMP280;7779;49.596;11.070;2023-12-22T02:24:30;96641.22;;;8.40
15360;BMP280;7779;49.596;11.070;2023-12-22T02:29:45;96657.09;;;8.42
15360;BMP280;7779;49.596;11.070;2023-12-22T02:32:33;96660.47;;;8.42
15360;BMP280;7779;49.596;11.070;2023-12-22T02:35:11;96662.91;;;8.41
15360;BMP280;7779;49.596;11.070;2023-12-22T02:37:39;96667.91;;;8.41
15360;BMP280;7779;49.596;11.070;2023-12-22T02:40:08;96665.47;;;8.42
15360;BMP280;7779;49.596;11.070;2023-12-22T02:42:36;96677.13;;;8.43
15360;BMP280;7779;49.596;11.070;2023-12-22T02:45:05;96663.88;;;8.44
15360;BMP280;7779;49.596;11.070;2023-12-22T02:47:31;96656.38;;;8.44
15360;BMP280;7779;49.596;11.070;2023-12-22T02:49:59;96678.84;;;8.44
15360;BMP280;7779;49.596;11.070;2023-12-22T02:52:24;96678.03;;;8.45
15360;BMP280;7779;49.596;11.070;2023-12-22T02:54:50;96676.41;;;8.46
15360;BMP280;7779;49.596;11.070;2023-12-22T02:57:16;96667.28;;;8.46
15360;BMP280;7779;49.596;11.070;2023-12-22T02:59:42;96659.78;;;8.46
15360;BMP280;7779;49.596;11.070;2023-12-22T03:02:07;96658.97;;;8.47
15360;BMP280;7779;49.596;11.070;2023-12-22T03:04:33;96665.63;;;8.47
15360;BMP280;7779;49.596;11.070;2023-12-22T03:06:59;96679.75;;;8.46
15360;BMP280;7779;49.596;11.070;2023-12-22T03:09:25;96680.53;;;8.45
15360;BMP280;7779;49.596;11.070;2023-12-22T03:11:50;96687.09;;;8.43
15360;BMP280;7779;49.596;11.070;2023-12-22T03:14:20;96715.34;;;8.42
15360;BMP280;7779;49.596;11.070;2023-12-22T03:16:45;96705.38;;;8.42
15360;BMP280;7779;49.596;11.070;2023-12-22T03:19:11;96691.19;;;8.41
15360;BMP280;7779;49.596;11.070;2023-12-22T03:21:37;96699.47;;;8.40
15360;BMP280;7779;49.596;11.070;2023-12-22T03:24:03;96703.66;;;8.41
15360;BMP280;7779;49.596;11.070;2023-12-22T03:26:28;96692.00;;;8.40
15360;BMP280;7779;49.596;11.070;2023-12-22T03:28:54;96676.16;;;8.40
15360;BMP280;7779;49.596;11.070;2023-12-22T03:31:20;96690.41;;;8.42
15360;BMP280;7779;49.596;11.070;2023-12-22T03:33:45;96686.19;;;8.41
15360;BMP280;7779;49.596;11.070;2023-12-22T03:36:11;96692.03;;;8.42
15360;BMP280;7779;49.596;11.070;2023-12-22T03:38:37;96687.84;;;8.41
15360;BMP280;7779;49.596;11.070;2023-12-22T03:41:03;96686.88;;;8.37
15360;BMP280;7779;49.596;11.070;2023-12-22T03:43:28;96699.41;;;8.39
15360;BMP280;7779;49.596;11.070;2023-12-22T03:45:57;96684.31;;;8.36
15360;BMP280;7779;49.596;11.070;2023-12-22T03:48:22;96673.56;;;8.37
15360;BMP280;7779;49.596;11.070;2023-12-22T03:50:48;96682.63;;;8.35
15360;BMP280;7779;49.596;11.070;2023-12-22T03:53:14;96678.44;;;8.34
15360;BMP280;7779;49.596;11.070;2023-12-22T03:55:39;96684.19;;;8.33
15360;BMP280;7779;49.596;11.070;2023-12-22T03:58:05;96687.50;;;8.32
15360;BMP280;7779;49.596;11.070;2023-12-22T04:00:33;96675.81;;;8.31
15360;BMP280;7779;49.596;11.070;2023-12-22T04:02:59;96653.31;;;8.29
15360;BMP280;7779;49.596;11.070;2023-12-22T04:05:24;96664.97;;;8.30
15360;BMP280;7779;49.596;11.070;2023-12-22T04:07:50;96660.81;;;8.29
15360;BMP280;7779;49.596;11.070;2023-12-22T04:10:19;96673.22;;;8.28
15360;BMP280;7779;49.596;11.070;2023-12-22T04:12:45;96669.06;;;8.28
15360;BMP280;7779;49.596;11.070;2023-12-22T04:15:10;96687.38;;;8.29
15360;BMP280;7779;49.596;11.070;2023-12-22T04:17:36;96671.50;;;8.27
15360;BMP280;7779;49.596;11.070;2023-12-22T04:20:02;96688.13;;;8.26
15360;BMP280;7779;49.596;11.070;2023-12-22T04:22:28;96695.53;;;8.25
15360;BMP280;7779;49.596;11.070;2023-12-22T04:24:54;96693.81;;;8.24
15360;BMP280;7779;49.596;11.070;2023-12-22T04:27:19;96674.69;;;8.23
15360;BMP280;7779;49.596;11.070;2023-12-22T04:29:45;96706.25;;;8.22
15360;BMP280;7779;49.596;11.070;2023-12-22T04:32:11;96709.53;;;8.21
15360;BMP280;7779;49.596;11.070;2023-12-22T04:34:36;96703.69;;;8.21
15360;BMP280;7779;49.596;11.070;2023-12-22T04:37:02;96706.97;;;8.20
15360;BMP280;7779;49.596;11.070;2023-12-22T04:39:28;96701.13;;;8.19
15360;BMP280;7779;49.596;11.070;2023-12-22T04:41:54;96705.28;;;8.19
15360;BMP280;7779;49.596;11.070;2023-12-22T04:44:19;96706.13;;;8.19
15360;BMP280;7779;49.596;11.070;2023-12-22T04:46:45;96707.78;;;8.19
15360;BMP280;7779;49.596;11.070;2023-12-22T04:49:11;96711.97;;;8.20
15360;BMP280;7779;49.596;11.070;2023-12-22T04:51:36;96714.50;;;8.21
15360;BMP280;7779;49.596;11.070;2023-12-22T04:54:02;96707.03;;;8.21
15360;BMP280;7779;49.596;11.070;2023-12-22T04:56:28;96717.00;;;8.21
15360;BMP280;7779;49.596;11.070;2023-12-22T04:58:54;96716.94;;;8.20
15360;BMP280;7779;49.596;11.070;2023-12-22T05:01:19;96718.53;;;8.18
15360;BMP280;7779;49.596;11.070;2023-12-22T05:03:46;96733.44;;;8.17
15360;BMP280;7779;49.596;11.070;2023-12-22T05:06:12;96745.00;;;8.15
15360;BMP280;7779;49.596;11.070;2023-12-22T05:08:37;96744.06;;;8.13
15360;BMP280;7779;49.596;11.070;2023-12-22T05:11:03;96748.06;;;8.09
15360;BMP280;7779;49.596;11.070;2023-12-22T05:13:29;96736.41;;;8.08
15360;BMP280;7779;49.596;11.070;2023-12-22T05:15:54;96753.78;;;8.07
15360;BMP280;7779;49.596;11.070;2023-12-22T05:18:20;96748.72;;;8.05
15360;BMP280;7779;49.596;11.070;2023-12-22T05:20:46;96759.50;;;8.04
15360;BMP280;7779;49.596;11.070;2023-12-22T05:23:12;96771.09;;;8.04
15360;BMP280;7779;49.596;11.070;2023-12-22T05:25:37;96767.78;;;8.03
15360;BMP280;7779;49.596;11.070;2023-12-22T05:28:03;96761.94;;;8.03
15360;BMP280;7779;49.596;11.070;2023-12-22T05:30:29;96772.81;;;8.05
15360;BMP280;7779;49.596;11.070;2023-12-22T05:32:55;96772.91;;;8.06
15360;BMP280;7779;49.596;11.070;2023-12-22T05:35:21;96766.31;;;8.08
15360;BMP280;7779;49.596;11.070;2023-12-22T05:37:46;96778.16;;;8.12
15360;BMP280;7779;49.596;11.070;2023-12-22T05:40:13;96769.16;;;8.16
15360;BMP280;7779;49.596;11.070;2023-12-22T05:42:39;96769.25;;;8.18
15360;BMP280;7779;49.596;11.070;2023-12-22T05:45:06;96773.53;;;8.21
15360;BMP280;7779;49.596;11.070;2023-12-22T05:47:32;96767.75;;;8.22
15360;BMP280;7779;49.596;11.070;2023-12-22T05:49:58;96762.81;;;8.23
15360;BMP280;7779;49.596;11.070;2023-12-22T05:52:24;96750.34;;;8.23
15360;BMP280;7779;49.596;11.070;2023-12-22T05:54:50;96766.16;;;8.24
15360;BMP280;7779;49.596;11.070;2023-12-22T05:57:16;96772.78;;;8.23
15360;BMP280;7779;49.596;11.070;2023-12-22T05:59:42;96764.47;;;8.23
15360;BMP280;7779;49.596;11.070;2023-12-22T06:02:08;96756.91;;;8.21
15360;BMP280;7779;49.596;11.070;2023-12-22T06:04:34;96751.03;;;8.19
15360;BMP280;7779;49.596;11.070;2023-12-22T06:07:00;96758.38;;;8.17
15360;BMP280;7779;49.596;11.070;2023-12-22T06:09:26;96754.97;;;8.15
15360;BMP280;7779;49.596;11.070;2023-12-22T06:11:52;96743.31;;;8.14
15360;BMP280;7779;49.596;11.070;2023-12-22T06:14:17;96747.38;;;8.12
15360;BMP280;7779;49.596;11.070;2023-12-22T06:16:43;96749.66;;;8.07
15360;BMP280;7779;49.596;11.070;2023-12-22T06:19:09;96760.34;;;8.05
15360;BMP280;7779;49.596;11.070;2023-12-22T06:21:39;96775.19;;;8.02
15360;BMP280;7779;49.596;11.070;2023-12-22T06:24:06;96781.63;;;7.97
15360;BMP280;7779;49.596;11.070;2023-12-22T06:26:33;96795.72;;;7.96
15360;BMP280;7779;49.596;11.070;2023-12-22T06:28:59;96779.78;;;7.93
15360;BMP280;7779;49.596;11.070;2023-12-22T06:31:25;96783.94;;;7.92
15360;BMP280;7779;49.596;11.070;2023-12-22T06:33:51;96795.56;;;7.92
15360;BMP280;7779;49.596;11.070;2023-12-22T06:36:25;96791.47;;;7.94
15360;BMP280;7779;49.596;11.070;2023-12-22T06:38:52;96777.38;;;7.94
15360;BMP280;7779;49.596;11.070;2023-12-22T06:41:29;96801.47;;;7.94
15360;BMP280;7779;49.596;11.070;2023-12-22T06:43:59;96796.47;;;7.94
15360;BMP280;7779;49.596;11.070;2023-12-22T06:46:28;96801.31;;;7.91
15360;BMP280;7779;49.596;11.070;2023-12-22T06:48:57;96801.25;;;7.89
15360;BMP280;7779;49.596;11.070;2023-12-22T06:51:26;96805.31;;;7.87
15360;BMP280;7779;49.596;11.070;2023-12-22T06:53:54;96813.53;;;7.85
15360;BMP280;7779;49.596;11.070;2023-12-22T06:56:23;96812.69;;;7.84
15360;BMP280;7779;49.596;11.070;2023-12-22T06:58:50;96820.03;;;7.81
15360;BMP280;7779;49.596;11.070;2023-12-22T07:01:29;96835.81;;;7.82
15360;BMP280;7779;49.596;11.070;2023-12-22T07:03:57;96819.19;;;7.81
15360;BMP280;7779;49.596;11.070;2023-12-22T07:06:24;96825.75;;;7.79
15360;BMP280;7779;49.596;11.070;2023-12-22T07:11:42;96830.75;;;7.79
15360;BMP280;7779;49.596;11.070;2023-12-22T07:14:08;96814.91;;;7.78
15360;BMP280;7779;49.596;11.070;2023-12-22T07:16:35;96804.94;;;7.78
15360;BMP280;7779;49.596;11.070;2023-12-22T07:19:01;96814.06;;;7.78
15360;BMP280;7779;49.596;11.070;2023-12-22T07:21:27;96827.44;;;7.80
15360;BMP280;7779;49.596;11.070;2023-12-22T07:23:53;96829.16;;;7.81
15360;BMP280;7779;49.596;11.070;2023-12-22T07:26:19;96842.53;;;7.83
15360;BMP280;7779;49.596;11.070;2023-12-22T07:28:47;96844.22;;;7.84
15360;BMP280;7779;49.596;11.070;2023-12-22T07:31:14;96853.41;;;7.85
15360;BMP280;7779;49.596;11.070;2023-12-22T07:33:40;96841.06;;;7.88
15360;BMP280;7779;49.596;11.070;2023-12-22T07:36:07;96851.19;;;7.91
15360;BMP280;7779;49.596;11.070;2023-12-22T07:38:32;96869.69;;;7.96
15360;BMP280;7779;49.596;11.070;2023-12-22T07:40:58;96863.19;;;7.99
15360;BMP280;7779;49.596;11.070;2023-12-22T07:43:25;96869.94;;;8.02
15360;BMP280;7779;49.596;11.070;2023-12-22T07:45:50;96843.34;;;8.02
15360;BMP280;7779;49.596;11.070;2023-12-22T07:48:19;96852.69;;;8.06
15360;BMP280;7779;49.596;11.070;2023-12-22T07:50:45;96858.53;;;8.07
15360;BMP280;7779;49.596;11.070;2023-12-22T07:53:11;96867.09;;;8.12
15360;BMP280;7779;49.596;11.070;2023-12-22T07:55:37;96860.59;;;8.15
15360;BMP280;7779;49.596;11.070;2023-12-22T07:58:05;96870.75;;;8.19
15360;BMP280;7779;49.596;11.070;2023-12-22T08:00:31;96877.56;;;8.23
15360;BMP280;7779;49.596;11.070;2023-12-22T08:02:57;96885.31;;;8.29
15360;BMP280;7779;49.596;11.070;2023-12-22T08:05:23;96870.53;;;8.34
15360;BMP280;7779;49.596;11.070;2023-12-22T08:07:49;96892.38;;;8.39
15360;BMP280;7779;49.596;11.070;2023-12-22T08:10:14;96886.78;;;8.45
15360;BMP280;7779;49.596;11.070;2023-12-22T08:12:41;96896.16;;;8.50
15360;BMP280;7779;49.596;11.070;2023-12-22T08:15:08;96893.91;;;8.56
15360;BMP280;7779;49.596;11.070;2023-12-22T08:17:36;96902.44;;;8.61
15360;BMP280;7779;49.596;11.070;2023-12-22T08:20:04;96904.25;;;8.65
15360;BMP280;7779;49.596;11.070;2023-12-22T08:22:29;96911.13;;;8.70
15360;BMP280;7779;49.596;11.070;2023-12-22T08:24:55;96896.34;;;8.75
15360;BMP280;7779;49.596;11.070;2023-12-22T08:27:21;96918.28;;;8.82
15360;BMP280;7779;49.596;11.070;2023-12-22T08:29:47;96907.72;;;8.89
15360;BMP280;7779;49.596;11.070;2023-12-22T08:32:12;96900.50;;;8.95
15360;BMP280;7779;49.596;11.070;2023-12-22T08:34:38;96909.00;;;8.99
15360;BMP280;7779;49.596;11.070;2023-12-22T08:37:04;96920.03;;;9.04
15360;BMP280;7779;49.596;11.070;2023-12-22T08:39:29;96921.84;;;9.08
15360;BMP280;7779;49.596;11.070;2023-12-22T08:41:55;96926.97;;;9.11
15360;BMP280;7779;49.596;11.070;2023-12-22T08:44:21;96933.00;;;9.16
15360;BMP280;7779;49.596;11.070;2023-12-22T08:46:46;96920.56;;;9.18
15360;BMP280;7779;49.596;11.070;2023-12-22T08:49:12;96921.44;;;9.18
15360;BMP280;7779;49.596;11.070;2023-12-22T08:51:38;96929.69;;;9.17
15360;BMP280;7779;49.596;11.070;2023-12-22T08:54:04;96933.00;;;9.16
15360;BMP280;7779;49.596;11.070;2023-12-22T08:56:30;96939.59;;;9.14
15360;BMP280;7779;49.596;11.070;2023-12-22T08:58:55;96958.75;;;9.15
15360;BMP280;7779;49.596;11.070;2023-12-22T09:01:24;96953.69;;;9.14
15360;BMP280;7779;49.596;11.070;2023-12-22T09:03:50;96952.09;;;9.14
15360;BMP280;7779;49.596;11.070;2023-12-22T09:06:20;96936.28;;;9.15
15360;BMP280;7779;49.596;11.070;2023-12-22T09:08:48;96938.72;;;9.14
15360;BMP280;7779;49.596;11.070;2023-12-22T09:11:17;96945.38;;;9.13
15360;BMP280;7779;49.596;11.070;2023-12-22T09:13:43;96949.59;;;9.14
15360;BMP280;7779;49.596;11.070;2023-12-22T09:16:10;96953.00;;;9.16
15360;BMP280;7779;49.596;11.070;2023-12-22T09:18:36;96949.69;;;9.17
15360;BMP280;7779;49.596;11.070;2023-12-22T09:21:03;96946.41;;;9.18
15360;BMP280;7779;49.596;11.070;2023-12-22T09:23:29;96946.53;;;9.21
15360;BMP280;7779;49.596;11.070;2023-12-22T09:25:55;96949.81;;;9.20
15360;BMP280;7779;49.596;11.070;2023-12-22T09:28:21;96949.81;;;9.20
15360;BMP280;7779;49.596;11.070;2023-12-22T09:30:46;96950.59;;;9.19
15360;BMP280;7779;49.596;11.070;2023-12-22T09:33:12;96929.81;;;9.20
15360;BMP280;7779;49.596;11.070;2023-12-22T09:35:38;96940.66;;;9.21
15360;BMP280;7779;49.596;11.070;2023-12-22T09:38:08;96925.75;;;9.22
15360;BMP280;7779;49.596;11.070;2023-12-22T09:40:38;96926.66;;;9.24
15360;BMP280;7779;49.596;11.070;2023-12-22T09:43:08;96935.06;;;9.26
15360;BMP280;7779;49.596;11.070;2023-12-22T09:45:34;96934.28;;;9.27
15360;BMP280;7779;49.596;11.070;2023-12-22T09:48:01;96926.78;;;9.27
15360;BMP280;7779;49.596;11.070;2023-12-22T09:50:30;96934.34;;;9.29
15360;BMP280;7779;49.596;11.070;2023-12-22T09:52:57;96926.94;;;9.32
15360;BMP280;7779;49.596;11.070;2023-12-22T09:55:23;96927.00;;;9.33
15360;BMP280;7779;49.596;11.070;2023-12-22T09:57:52;96933.72;;;9.34
15360;BMP280;7779;49.596;11.070;2023-12-22T10:00:18;96937.81;;;9.32
15360;BMP280;7779;49.596;11.070;2023-12-22T10:02:45;96936.94;;;9.32
15360;BMP280;7779;49.596;11.070;2023-12-22T10:05:11;96941.03;;;9.30
15360;BMP280;7779;49.596;11.070;2023-12-22T10:07:46;96926.78;;;9.27
15360;BMP280;7779;49.596;11.070;2023-12-22T10:10:13;96924.97;;;9.23
15360;BMP280;7779;49.596;11.070;2023-12-22T10:12:41;96910.63;;;9.19
15360;BMP280;7779;49.596;11.070;2023-12-22T10:15:11;96919.69;;;9.17
15360;BMP280;7779;49.596;11.070;2023-12-22T10:17:38;96922.81;;;9.12
15360;BMP280;7779;49.596;11.070;2023-12-22T10:20:04;96923.63;;;9.11
15360;BMP280;7779;49.596;11.070;2023-12-22T10:22:30;96915.28;;;9.10
15360;BMP280;7779;49.596;11.070;2023-12-22T10:24:55;96923.63;;;9.11
15360;BMP280;7779;49.596;11.070;2023-12-22T10:27:21;96909.47;;;9.11
15360;BMP280;7779;49.596;11.070;2023-12-22T10:29:53;96910.38;;;9.13
15360;BMP280;7779;49.596;11.070;2023-12-22T10:32:20;96910.38;;;9.13
15360;BMP280;7779;49.596;11.070;2023-12-22T10:34:47;96912.13;;;9.14
15360;BMP280;7779;49.596;11.070;2023-12-22T10:37:13;96908.88;;;9.17
15360;BMP280;7779;49.596;11.070;2023-12-22T10:39:39;96903.13;;;9.19
15360;BMP280;7779;49.596;11.070;2023-12-22T10:42:05;96891.56;;;9.21
15360;BMP280;7779;49.596;11.070;2023-12-22T10:44:31;96880.00;;;9.23
15360;BMP280;7779;49.596;11.070;2023-12-22T10:46:58;96874.19;;;9.24
15360;BMP280;7779;49.596;11.070;2023-12-22T10:49:25;96871.81;;;9.27
15360;BMP280;7779;49.596;11.070;2023-12-22T10:51:52;96861.91;;;9.30
15360;BMP280;7779;49.596;11.070;2023-12-22T10:54:19;96854.53;;;9.33
15360;BMP280;7779;49.596;11.070;2023-12-22T10:56:45;96848.00;;;9.36
15360;BMP280;7779;49.596;11.070;2023-12-22T10:59:11;96850.63;;;9.39
15360;BMP280;7779;49.596;11.070;2023-12-22T11:01:38;96860.72;;;9.42
15360;BMP280;7779;49.596;11.070;2023-12-22T11:04:07;96868.34;;;9.45
15360;BMP280;7779;49.596;11.070;2023-12-22T11:06:37;96854.19;;;9.46
15360;BMP280;7779;49.596;11.070;2023-12-22T11:09:09;96850.91;;;9.47
15360;BMP280;7779;49.596;11.070;2023-12-22T11:11:37;96855.97;;;9.48
15360;BMP280;7779;49.596;11.070;2023-12-22T11:14:05;96852.72;;;9.51
15360;BMP280;7779;49.596;11.070;2023-12-22T11:16:35;96844.53;;;9.55
15360;BMP280;7779;49.596;11.070;2023-12-22T11:19:03;96844.53;;;9.55
15360;BMP280;7779;49.596;11.070;2023-12-22T11:21:30;96851.25;;;9.56
15360;BMP280;7779;49.596;11.070;2023-12-22T11:23:57;96847.16;;;9.58
15360;BMP280;7779;49.596;11.070;2023-12-22T11:26:24;96839.72;;;9.59
15360;BMP280;7779;49.596;11.070;2023-12-22T11:28:52;96839.75;;;9.61
15360;BMP280;7779;49.596;11.070;2023-12-22T11:31:18;96831.41;;;9.60
15360;BMP280;7779;49.596;11.070;2023-12-22T11:33:49;96832.28;;;9.62
15360;BMP280;7779;49.596;11.070;2023-12-22T11:36:16;96829.91;;;9.65
15360;BMP280;7779;49.596;11.070;2023-12-22T11:38:46;96810.88;;;9.69
15360;BMP280;7779;49.596;11.070;2023-12-22T11:41:26;96805.19;;;9.73
15360;BMP280;7779;49.596;11.070;2023-12-22T11:43:53;96802.78;;;9.75
15360;BMP280;7779;49.596;11.070;2023-12-22T11:46:20;96800.38;;;9.78
15360;BMP280;7779;49.596;11.070;2023-12-22T11:48:51;96793.06;;;9.83
15360;BMP280;7779;49.596;11.070;2023-12-22T11:51:18;96791.50;;;9.86
15360;BMP280;7779;49.596;11.070;2023-12-22T11:53:45;96799.09;;;9.89
15360;BMP280;7779;49.596;11.070;2023-12-22T11:56:12;96798.47;;;9.93
15360;BMP280;7779;49.596;11.070;2023-12-22T12:01:10;96771.91;;;9.97
15360;BMP280;7779;49.596;11.070;2023-12-22T12:03:42;96764.53;;;10.01
15360;BMP280;7779;49.596;11.070;2023-12-22T12:06:32;96769.66;;;10.04
15360;BMP280;7779;49.596;11.070;2023-12-22T12:09:01;96757.94;;;10.03
15360;BMP280;7779;49.596;11.070;2023-12-22T12:14:41;96740.63;;;10.09
15360;BMP280;7779;49.596;11.070;2023-12-22T12:17:09;96753.94;;;10.08
15360;BMP280;7779;49.596;11.070;2023-12-22T12:19:38;96745.66;;;10.11
15360;BMP280;7779;49.596;11.070;2023-12-22T12:22:04;96731.53;;;10.11
15360;BMP280;7779;49.596;11.070;2023-12-22T12:24:30;96727.44;;;10.14
15360;BMP280;7779;49.596;11.070;2023-12-22T12:26:56;96720.88;;;10.16
15360;BMP280;7779;49.596;11.070;2023-12-22T12:29:22;96722.59;;;10.19
15360;BMP280;7779;49.596;11.070;2023-12-22T12:31:48;96695.97;;;10.21
15360;BMP280;7779;49.596;11.070;2023-12-22T12:34:14;96701.88;;;10.23
15360;BMP280;7779;49.596;11.070;2023-12-22T12:36:43;96697.78;;;10.25
15360;BMP280;7779;49.596;11.070;2023-12-22T12:39:17;96683.66;;;10.27
15360;BMP280;7779;49.596;11.070;2023-12-22T12:41:54;96672.03;;;10.29
15360;BMP280;7779;49.596;11.070;2023-12-22T12:44:22;96662.91;;;10.31
15360;BMP280;7779;49.596;11.070;2023-12-22T12:46:49;96667.13;;;10.32
15360;BMP280;7779;49.596;11.070;2023-12-22T12:49:15;96658.00;;;10.34
15360;BMP280;7779;49.596;11.070;2023-12-22T12:51:48;96659.78;;;10.38
15360;BMP280;7779;49.596;11.070;2023-12-22T12:54:15;96647.38;;;10.41
15360;BMP280;7779;49.596;11.070;2023-12-22T12:56:43;96642.50;;;10.44
15360;BMP280;7779;49.596;11.070;2023-12-22T12:59:15;96628.34;;;10.46
15360;BMP280;7779;49.596;11.070;2023-12-22T13:01:46;96630.91;;;10.47
15360;BMP280;7779;49.596;11.070;2023-12-22T13:04:13;96631.81;;;10.49
15360;BMP280;7779;49.596;11.070;2023-12-22T13:06:48;96629.31;;;10.51
15360;BMP280;7779;49.596;11.070;2023-12-22T13:09:16;96636.13;;;10.54
15360;BMP280;7779;49.596;11.070;2023-12-22T13:11:46;96641.22;;;10.57
15360;BMP280;7779;49.596;11.070;2023-12-22T13:14:21;96630.47;;;10.60
15360;BMP280;7779;49.596;11.070;2023-12-22T13:16:48;96638.09;;;10.64
15360;BMP280;7779;49.596;11.070;2023-12-22T13:19:14;96632.34;;;10.67
15360;BMP280;7779;49.596;11.070;2023-12-22T13:21:40;96623.16;;;10.67
15360;BMP280;7779;49.596;11.070;2023-12-22T13:24:15;96643.34;;;10.73
15360;BMP280;7779;49.596;11.070;2023-12-22T13:26:44;96632.56;;;10.76
15360;BMP280;7779;49.596;11.070;2023-12-22T13:29:12;96631.81;;;10.78
15360;BMP280;7779;49.596;11.070;2023-12-22T13:31:40;96620.25;;;10.82
15360;BMP280;7779;49.596;11.070;2023-12-22T13:34:11;96609.44;;;10.84
15360;BMP280;7779;49.596;11.070;2023-12-22T13:36:38;96606.16;;;10.87
15360;BMP280;7779;49.596;11.070;2023-12-22T13:39:06;96605.41;;;10.89
15360;BMP280;7779;49.596;11.070;2023-12-22T13:41:38;96612.09;;;10.90
15360;BMP280;7779;49.596;11.070;2023-12-22T13:44:11;96610.53;;;10.92
15360;BMP280;7779;49.596;11.070;2023-12-22T13:46:37;96613.03;;;10.93
15360;BMP280;7779;49.596;11.070;2023-12-22T13:49:08;96603.06;;;10.95
15360;BMP280;7779;49.596;11.070;2023-12-22T13:51:43;96600.66;;;10.98
15360;BMP280;7779;49.596;11.070;2023-12-22T13:54:10;96602.38;;;11.00
15360;BMP280;7779;49.596;11.070;2023-12-22T13:56:37;96605.81;;;11.04
15360;BMP280;7779;49.596;11.070;2023-12-22T13:59:06;96610.94;;;11.07
15360;BMP280;7779;49.596;11.070;2023-12-22T14:01:32;96621.00;;;11.10
15360;BMP280;7779;49.596;11.070;2023-12-22T14:03:59;96621.91;;;11.12
15360;BMP280;7779;49.596;11.070;2023-12-22T14:06:28;96597.75;;;11.14
15360;BMP280;7779;49.596;11.070;2023-12-22T14:08:55;96616.19;;;11.16
15360;BMP280;7779;49.596;11.070;2023-12-22T14:11:22;96621.25;;;11.19
15360;BMP280;7779;49.596;11.070;2023-12-22T14:13:48;96613.78;;;11.20
15360;BMP280;7779;49.596;11.070;2023-12-22T14:16:15;96602.97;;;11.21
15360;BMP280;7779;49.596;11.070;2023-12-22T14:18:42;96608.88;;;11.23
15360;BMP280;7779;49.596;11.070;2023-12-22T14:21:08;96614.75;;;11.25
15360;BMP280;7779;49.596;11.070;2023-12-22T14:23:33;96604.75;;;11.25
15360;BMP280;7779;49.596;11.070;2023-12-22T14:25:59;96604.75;;;11.25
15360;BMP280;7779;49.596;11.070;2023-12-22T14:28:25;96618.16;;;11.27
15360;BMP280;7779;49.596;11.070;2023-12-22T14:30:51;96607.25;;;11.25
15360;BMP280;7779;49.596;11.070;2023-12-22T14:33:16;96610.63;;;11.27